createdAt,value
2019-01-12T00:00:50.540Z,6.90
2019-01-12T00:03:28.554Z,7.00
2019-01-12T00:06:12.370Z,7.00
2019-01-12T00:08:46.452Z,7.00
2019-01-12T00:11:19.676Z,7.00
2019-01-12T00:13:52.446Z,7.00
2019-01-12T00:16:24.786Z,7.00
2019-01-12T00:18:57.809Z,7.00
2019-01-12T00:21:30.652Z,7.00
2019-01-12T00:24:04.300Z,7.00
2019-01-12T00:26:37.602Z,7.00
2019-01-12T00:29:09.727Z,7.00
2019-01-12T00:31:43.806Z,7.00
2019-01-12T00:34:15.464Z,7.00
2019-01-12T00:36:47.120Z,7.00
2019-01-12T00:39:19.887Z,7.00
2019-01-12T00:41:52.134Z,7.00
2019-01-12T00:44:24.049Z,6.90
2019-01-12T00:46:57.518Z,6.90
2019-01-12T00:49:28.691Z,6.90
2019-01-12T00:52:00.277Z,6.90
2019-01-12T00:54:38.364Z,6.90
2019-01-12T00:57:04.903Z,6.90
2019-01-12T00:59:36.497Z,6.90
2019-01-12T01:02:08.015Z,6.90
2019-01-12T01:04:38.618Z,6.80
2019-01-12T01:07:08.957Z,6.80
2019-01-12T01:09:39.742Z,6.80
2019-01-12T01:12:10.025Z,6.80
2019-01-12T01:14:40.483Z,6.80
2019-01-12T01:17:10.751Z,6.80
2019-01-12T01:19:40.966Z,6.80
2019-01-12T01:22:11.264Z,6.70
2019-01-12T01:24:45.706Z,6.70
2019-01-12T01:27:14.197Z,6.80
2019-01-12T01:29:44.999Z,6.80
2019-01-12T01:32:15.567Z,6.70
2019-01-12T01:34:46.366Z,6.70
2019-01-12T01:37:16.561Z,6.70
2019-01-12T01:39:46.778Z,6.80
2019-01-12T01:42:17.234Z,6.80
2019-01-12T01:44:47.449Z,6.70
2019-01-12T01:47:17.887Z,6.70
2019-01-12T01:49:48.123Z,6.70
2019-01-12T01:52:18.301Z,6.70
2019-01-12T01:54:52.715Z,6.70
2019-01-12T01:57:20.433Z,6.70
2019-01-12T01:59:50.662Z,6.60
2019-01-12T02:02:20.853Z,6.60
2019-01-12T02:04:51.083Z,6.60
2019-01-12T02:07:21.285Z,6.60
2019-01-12T02:09:51.675Z,6.60
2019-01-12T02:12:21.861Z,6.70
2019-01-12T02:14:52.081Z,6.70
2019-01-12T02:17:22.600Z,6.70
2019-01-12T02:19:52.815Z,6.70
2019-01-12T02:22:23.245Z,6.60
2019-01-12T02:24:59.742Z,6.60
2019-01-12T02:27:25.419Z,6.70
2019-01-12T02:29:55.689Z,6.60
2019-01-12T02:32:25.879Z,6.60
2019-01-12T02:34:56.094Z,6.60
2019-01-12T02:37:26.281Z,6.70
2019-01-12T02:39:56.506Z,6.70
2019-01-12T02:42:26.736Z,6.70
2019-01-12T02:44:57.542Z,6.70
2019-01-12T02:47:27.742Z,6.70
2019-01-12T02:49:58.539Z,6.60
2019-01-12T02:52:28.748Z,6.60
2019-01-12T02:54:58.978Z,6.60
2019-01-12T02:57:30.018Z,6.60
2019-01-12T03:00:00.837Z,6.60
2019-01-12T03:02:31.043Z,6.60
2019-01-12T03:05:01.266Z,6.60
2019-01-12T03:07:32.147Z,6.60
2019-01-12T03:10:03.052Z,6.50
2019-01-12T03:12:33.277Z,6.50
2019-01-12T03:15:04.606Z,6.50
2019-01-12T03:17:34.841Z,6.60
2019-01-12T03:20:10.591Z,6.60
2019-01-12T03:22:40.802Z,6.60
2019-01-12T03:25:17.749Z,6.60
2019-01-12T03:27:43.306Z,6.60
2019-01-12T03:30:15.551Z,6.60
2019-01-12T03:32:45.817Z,6.60
2019-01-12T03:35:16.220Z,6.60
2019-01-12T03:37:47.033Z,6.60
2019-01-12T03:40:18.114Z,6.60
2019-01-12T03:42:48.565Z,6.50
2019-01-12T03:45:19.292Z,6.60
2019-01-12T03:47:50.023Z,6.60
2019-01-12T03:50:20.309Z,6.50
2019-01-12T03:52:50.522Z,6.50
2019-01-12T03:55:25.483Z,6.60
2019-01-12T03:57:53.025Z,6.60
2019-01-12T04:00:23.359Z,6.60
2019-01-12T04:02:53.666Z,6.50
2019-01-12T04:05:23.907Z,6.50
2019-01-12T04:07:54.217Z,6.50
2019-01-12T04:10:24.422Z,6.50
2019-01-12T04:12:54.646Z,6.50
2019-01-12T04:15:24.866Z,6.50
2019-01-12T04:17:55.100Z,6.50
2019-01-12T04:20:25.323Z,6.40
2019-01-12T04:22:55.761Z,6.40
2019-01-12T04:25:33.241Z,6.50
2019-01-12T04:27:57.898Z,6.40
2019-01-12T04:30:28.337Z,6.40
2019-01-12T04:32:58.562Z,6.40
2019-01-12T04:35:28.766Z,6.40
2019-01-12T04:37:58.993Z,6.40
2019-01-12T04:40:29.177Z,6.40
2019-01-12T04:42:59.976Z,6.40
2019-01-12T04:45:30.212Z,6.40
2019-01-12T04:48:00.971Z,6.30
2019-01-12T04:50:31.261Z,6.30
2019-01-12T04:53:01.441Z,6.30
2019-01-12T04:55:31.668Z,6.30
2019-01-12T04:58:01.859Z,6.30
2019-01-12T05:00:32.084Z,6.30
2019-01-12T05:03:02.274Z,6.30
2019-01-12T05:05:32.500Z,6.40
2019-01-12T05:08:02.930Z,6.40
2019-01-12T05:10:33.151Z,6.40
2019-01-12T05:13:03.349Z,6.30
2019-01-12T05:15:33.559Z,6.30
2019-01-12T05:18:03.822Z,6.30
2019-01-12T05:20:34.635Z,6.30
2019-01-12T05:23:05.396Z,6.30
2019-01-12T05:25:35.610Z,6.40
2019-01-12T05:28:05.809Z,6.40
2019-01-12T05:30:36.042Z,6.40
2019-01-12T05:33:06.235Z,6.40
2019-01-12T05:35:36.683Z,6.30
2019-01-12T05:38:06.867Z,6.40
2019-01-12T05:40:37.898Z,6.30
2019-01-12T05:43:08.098Z,6.30
2019-01-12T05:45:38.317Z,6.30
2019-01-12T05:48:08.590Z,6.30
2019-01-12T05:50:38.810Z,6.30
2019-01-12T05:53:08.993Z,6.40
2019-01-12T05:55:39.227Z,6.30
2019-01-12T05:58:09.417Z,6.30
2019-01-12T06:00:39.650Z,6.30
2019-01-12T06:03:09.856Z,6.30
2019-01-12T06:05:40.065Z,6.30
2019-01-12T06:08:10.253Z,6.30
2019-01-12T06:10:40.489Z,6.30
2019-01-12T06:13:10.684Z,6.30
2019-01-12T06:15:40.901Z,6.30
2019-01-12T06:18:11.109Z,6.30
2019-01-12T06:20:41.909Z,6.30
2019-01-12T06:23:12.094Z,6.30
2019-01-12T06:25:42.332Z,6.30
2019-01-12T06:28:12.595Z,6.30
2019-01-12T06:30:42.810Z,6.30
2019-01-12T06:33:13.031Z,6.20
2019-01-12T06:35:43.222Z,6.20
2019-01-12T06:38:13.663Z,6.20
2019-01-12T06:40:44.094Z,6.10
2019-01-12T06:43:14.305Z,6.20
2019-01-12T06:45:44.735Z,6.20
2019-01-12T06:48:14.958Z,6.20
2019-01-12T06:50:45.149Z,6.20
2019-01-12T06:53:15.360Z,6.10
2019-01-12T06:55:45.549Z,6.10
2019-01-12T06:58:15.758Z,6.00
2019-01-12T07:00:45.947Z,6.10
2019-01-12T07:03:16.169Z,6.10
2019-01-12T07:05:46.350Z,6.10
2019-01-12T07:08:16.573Z,6.10
2019-01-12T07:10:46.798Z,6.10
2019-01-12T07:13:17.256Z,6.10
2019-01-12T07:15:47.434Z,6.10
2019-01-12T07:18:17.649Z,6.00
2019-01-12T07:20:47.833Z,6.00
2019-01-12T07:23:18.631Z,6.00
2019-01-12T07:25:49.053Z,6.00
2019-01-12T07:28:19.553Z,6.00
2019-01-12T07:30:49.793Z,6.00
2019-01-12T07:33:19.998Z,6.00
2019-01-12T07:35:50.182Z,5.90
2019-01-12T07:38:20.634Z,6.00
2019-01-12T07:40:50.835Z,6.00
2019-01-12T07:43:21.058Z,6.00
2019-01-12T07:45:51.277Z,6.00
2019-01-12T07:48:21.722Z,5.90
2019-01-12T07:50:51.945Z,5.90
2019-01-12T07:53:22.159Z,5.90
2019-01-12T07:55:52.431Z,5.90
2019-01-12T07:58:22.637Z,5.90
2019-01-12T08:00:52.833Z,5.90
2019-01-12T08:03:23.055Z,6.00
2019-01-12T08:05:53.244Z,5.90
2019-01-12T08:08:23.457Z,5.90
2019-01-12T08:10:53.650Z,5.90
2019-01-12T08:13:23.875Z,5.90
2019-01-12T08:15:54.293Z,5.90
2019-01-12T08:18:24.518Z,5.90
2019-01-12T08:20:54.926Z,6.00
2019-01-12T08:23:25.151Z,6.00
2019-01-12T08:25:58.286Z,6.00
2019-01-12T08:28:29.349Z,6.00
2019-01-12T08:30:59.583Z,6.10
2019-01-12T08:33:29.805Z,6.10
2019-01-12T08:36:00.017Z,6.10
2019-01-12T08:38:30.236Z,6.20
2019-01-12T08:41:00.675Z,6.20
2019-01-12T08:43:30.880Z,6.20
2019-01-12T08:46:01.335Z,6.30
2019-01-12T08:48:31.526Z,6.30
2019-01-12T08:51:01.754Z,6.30
2019-01-12T08:53:31.954Z,6.30
2019-01-12T08:56:02.190Z,6.30
2019-01-12T08:58:32.385Z,6.30
2019-01-12T09:01:02.685Z,6.40
2019-01-12T09:03:33.121Z,6.30
2019-01-12T09:06:03.577Z,6.30
2019-01-12T09:08:33.774Z,6.30
2019-01-12T09:11:04.070Z,6.30
2019-01-12T09:13:34.266Z,6.40
2019-01-12T09:16:04.855Z,6.40
2019-01-12T09:18:36.614Z,6.40
2019-01-12T09:21:06.874Z,6.40
2019-01-12T09:23:37.078Z,6.50
2019-01-12T09:26:07.535Z,6.50
2019-01-12T09:28:37.949Z,6.50
2019-01-12T09:31:08.178Z,6.50
2019-01-12T09:33:38.369Z,6.50
2019-01-12T09:36:08.594Z,6.50
2019-01-12T09:38:38.782Z,6.40
2019-01-12T09:41:09.001Z,6.40
2019-01-12T09:43:39.461Z,6.50
2019-01-12T09:46:09.697Z,6.50
2019-01-12T09:48:40.114Z,6.40
2019-01-12T09:51:10.342Z,6.40
2019-01-12T09:53:40.577Z,6.50
2019-01-12T09:56:10.836Z,6.50
2019-01-12T09:58:41.037Z,6.50
2019-01-12T10:01:11.279Z,6.50
2019-01-12T10:03:41.711Z,6.50
2019-01-12T10:06:11.945Z,6.60
2019-01-12T10:08:42.142Z,6.60
2019-01-12T10:11:12.357Z,6.60
2019-01-12T10:13:42.570Z,6.60
2019-01-12T10:16:13.374Z,6.60
2019-01-12T10:18:43.574Z,6.70
2019-01-12T10:21:14.026Z,6.70
2019-01-12T10:23:44.250Z,6.70
2019-01-12T10:26:14.443Z,6.70
2019-01-12T10:28:44.672Z,6.80
2019-01-12T10:31:15.450Z,6.70
2019-01-12T10:33:45.906Z,6.80
2019-01-12T10:36:16.978Z,6.70
2019-01-12T10:38:47.790Z,6.80
2019-01-12T10:41:18.596Z,6.80
2019-01-12T10:43:49.053Z,6.70
2019-01-12T10:46:19.287Z,6.70
2019-01-12T10:48:50.056Z,6.70
2019-01-12T10:51:20.258Z,6.70
2019-01-12T10:53:50.735Z,6.80
2019-01-12T10:56:21.347Z,6.80
2019-01-12T10:58:51.628Z,6.80
2019-01-12T11:01:22.630Z,6.80
2019-01-12T11:03:53.413Z,6.80
2019-01-12T11:06:23.598Z,6.80
2019-01-12T11:08:54.390Z,6.80
2019-01-12T11:11:24.568Z,6.80
2019-01-12T11:13:54.781Z,6.80
2019-01-12T11:16:25.539Z,6.80
2019-01-12T11:18:56.334Z,6.80
2019-01-12T11:21:27.116Z,6.80
2019-01-12T11:23:57.410Z,6.90
2019-01-12T11:26:28.157Z,6.90
2019-01-12T11:28:58.550Z,6.90
2019-01-12T11:31:28.758Z,6.90
2019-01-12T11:33:58.995Z,6.90
2019-01-12T11:36:29.184Z,6.90
2019-01-12T11:38:59.648Z,6.90
2019-01-12T11:41:30.650Z,6.90
2019-01-12T11:44:03.142Z,6.90
2019-01-12T11:46:34.128Z,6.90
2019-01-12T11:49:05.152Z,6.90
2019-01-12T11:51:36.194Z,6.90
2019-01-12T11:54:06.966Z,7.00
2019-01-12T11:56:38.257Z,7.00
2019-01-12T11:59:09.017Z,7.10
2019-01-12T12:01:39.826Z,7.20
2019-01-12T12:04:10.758Z,7.20
2019-01-12T12:06:41.535Z,7.30
2019-01-12T12:09:12.339Z,7.30
2019-01-12T12:11:43.111Z,7.30
2019-01-12T12:14:14.130Z,7.30
2019-01-12T12:16:45.216Z,7.40
2019-01-12T12:19:16.023Z,7.40
2019-01-12T12:21:46.805Z,7.40
2019-01-12T12:24:17.806Z,7.40
2019-01-12T12:26:48.612Z,7.50
2019-01-12T12:29:19.378Z,7.50
2019-01-12T12:31:50.404Z,7.50
2019-01-12T12:34:21.165Z,7.60
2019-01-12T12:36:51.955Z,7.60
2019-01-12T12:39:22.742Z,7.60
2019-01-12T12:41:53.542Z,7.60
2019-01-12T12:44:24.315Z,7.60
2019-01-12T12:46:55.102Z,7.60
2019-01-12T12:49:25.854Z,7.60
2019-01-12T12:51:56.643Z,7.60
2019-01-12T12:54:27.654Z,7.60
2019-01-12T12:56:58.452Z,7.60
2019-01-12T12:59:29.466Z,7.60
2019-01-12T13:02:00.497Z,7.50
2019-01-12T13:04:31.503Z,7.50
2019-01-12T13:07:02.530Z,7.50
2019-01-12T13:09:33.311Z,7.40
2019-01-12T13:12:04.742Z,7.40
2019-01-12T13:14:35.498Z,7.30
2019-01-12T13:17:06.365Z,7.30
2019-01-12T13:19:37.141Z,7.30
2019-01-12T13:22:08.134Z,7.30
2019-01-12T13:24:39.133Z,7.30
2019-01-12T13:27:09.923Z,7.30
2019-01-12T13:29:40.910Z,7.20
2019-01-12T13:32:11.699Z,7.30
2019-01-12T13:34:42.688Z,7.30
2019-01-12T13:37:13.471Z,7.30
2019-01-12T13:39:44.250Z,7.20
2019-01-12T13:42:15.237Z,7.20
2019-01-12T13:44:46.248Z,7.20
2019-01-12T13:47:20.804Z,7.20
2019-01-12T13:49:49.483Z,7.20
2019-01-12T13:52:20.486Z,7.30
2019-01-12T13:54:51.312Z,7.30
2019-01-12T13:57:22.074Z,7.30
2019-01-12T13:59:53.093Z,7.30
2019-01-12T14:02:24.108Z,7.20
2019-01-12T14:04:54.898Z,7.20
2019-01-12T14:07:25.678Z,7.20
2019-01-12T14:09:56.695Z,7.20
2019-01-12T14:12:27.462Z,7.20
2019-01-12T14:14:58.232Z,7.20
2019-01-12T14:17:29.123Z,7.20
2019-01-12T14:19:59.942Z,7.20
2019-01-12T14:22:30.966Z,7.20
2019-01-12T14:25:01.940Z,7.20
2019-01-12T14:27:32.954Z,7.20
2019-01-12T14:30:07.035Z,7.20
2019-01-12T14:32:38.117Z,7.20
2019-01-12T14:35:11.142Z,7.20
2019-01-12T14:37:42.054Z,7.10
2019-01-12T14:40:20.880Z,7.20
2019-01-12T14:42:51.658Z,7.20
2019-01-12T14:45:24.903Z,7.20
2019-01-12T14:47:55.915Z,7.20
2019-01-12T14:50:26.664Z,7.20
2019-01-12T14:52:57.120Z,7.20
2019-01-12T14:55:27.952Z,7.20
2019-01-12T14:58:02.522Z,7.10
2019-01-12T15:00:31.446Z,7.10
2019-01-12T15:03:02.263Z,7.10
2019-01-12T15:05:33.370Z,7.10
2019-01-12T15:08:05.278Z,7.10
2019-01-12T15:10:36.050Z,7.10
2019-01-12T15:13:07.042Z,7.10
2019-01-12T15:15:37.817Z,7.10
2019-01-12T15:18:08.718Z,7.10
2019-01-12T15:20:39.499Z,7.10
2019-01-12T15:23:10.250Z,7.00
2019-01-12T15:25:41.013Z,7.00
2019-01-12T15:28:11.758Z,7.00
2019-01-12T15:30:42.538Z,7.00
2019-01-12T15:33:13.282Z,7.00
2019-01-12T15:35:44.062Z,7.00
2019-01-12T15:38:14.842Z,7.10
2019-01-12T15:40:45.627Z,7.10
2019-01-12T15:43:16.374Z,7.00
2019-01-12T15:45:47.158Z,7.10
2019-01-12T15:48:17.913Z,7.10
2019-01-12T15:50:48.686Z,7.10
2019-01-12T15:53:19.448Z,7.10
2019-01-12T15:55:50.456Z,7.10
2019-01-12T15:58:21.214Z,7.10
2019-01-12T16:00:51.983Z,7.10
2019-01-12T16:03:22.729Z,7.10
2019-01-12T16:05:53.510Z,7.00
2019-01-12T16:08:24.487Z,7.00
2019-01-12T16:10:55.347Z,7.00
2019-01-12T16:13:26.326Z,7.10
2019-01-12T16:15:57.322Z,7.10
2019-01-12T16:18:28.078Z,7.00
2019-01-12T16:20:59.090Z,7.10
2019-01-12T16:23:29.841Z,7.10
2019-01-12T16:26:00.618Z,7.10
2019-01-12T16:28:31.361Z,7.20
2019-01-12T16:31:02.450Z,7.20
2019-01-12T16:33:33.201Z,7.20
2019-01-12T16:36:04.411Z,7.20
2019-01-12T16:38:35.158Z,7.20
2019-01-12T16:41:06.005Z,7.30
2019-01-12T16:43:36.874Z,7.30
2019-01-12T16:46:07.723Z,7.30
2019-01-12T16:48:38.495Z,7.30
2019-01-12T16:51:09.350Z,7.30
2019-01-12T16:53:40.341Z,7.30
2019-01-12T16:56:11.135Z,7.30
2019-01-12T16:58:42.150Z,7.30
2019-01-12T17:01:12.902Z,7.30
2019-01-12T17:03:43.762Z,7.30
2019-01-12T17:06:14.567Z,7.40
2019-01-12T17:08:45.349Z,7.40
2019-01-12T17:11:16.217Z,7.50
2019-01-12T17:13:47.089Z,7.50
2019-01-12T17:16:17.898Z,7.50
2019-01-12T17:18:48.900Z,7.50
2019-01-12T17:21:19.905Z,7.50
2019-01-12T17:23:50.687Z,7.50
2019-01-12T17:26:21.457Z,7.50
2019-01-12T17:28:52.253Z,7.50
2019-01-12T17:31:23.258Z,7.50
2019-01-12T17:33:54.270Z,7.50
2019-01-12T17:36:25.098Z,7.50
2019-01-12T17:38:55.881Z,7.50
2019-01-12T17:41:26.717Z,7.50
2019-01-12T17:43:57.541Z,7.50
2019-01-12T17:46:28.575Z,7.50
2019-01-12T17:48:59.358Z,7.50
2019-01-12T17:51:30.427Z,7.50
2019-01-12T17:54:01.203Z,7.50
2019-01-12T17:56:31.962Z,7.50
2019-01-12T17:59:02.829Z,7.50
2019-01-12T18:01:33.839Z,7.50
2019-01-12T18:04:04.784Z,7.50
2019-01-12T18:06:35.551Z,7.50
2019-01-12T18:09:06.965Z,7.50
2019-01-12T18:11:37.731Z,7.50
2019-01-12T18:14:08.526Z,7.50
2019-01-12T18:16:39.271Z,7.50
2019-01-12T18:19:10.291Z,7.40
2019-01-12T18:21:41.042Z,7.40
2019-01-12T18:24:11.834Z,7.40
2019-01-12T18:26:42.610Z,7.40
2019-01-12T18:29:13.373Z,7.40
2019-01-12T18:31:44.390Z,7.40
2019-01-12T18:34:15.150Z,7.30
2019-01-12T18:36:46.166Z,7.30
2019-01-12T18:39:16.922Z,7.30
2019-01-12T18:41:47.722Z,7.30
2019-01-12T18:44:18.474Z,7.30
2019-01-12T18:50:40.239Z,7.20
2019-01-12T18:53:11.083Z,7.20
2019-01-12T18:55:41.871Z,7.20
2019-01-12T18:58:12.634Z,7.20
2019-01-12T19:00:43.686Z,7.20
2019-01-12T19:03:14.441Z,7.20
2019-01-12T19:05:45.233Z,7.20
2019-01-12T19:08:15.994Z,7.10
2019-01-12T19:10:46.788Z,7.10
2019-01-12T19:13:17.794Z,7.10
2019-01-12T19:15:48.817Z,7.10
2019-01-12T19:18:19.825Z,7.10
2019-01-12T19:20:50.631Z,7.10
2019-01-12T19:23:21.397Z,7.10
2019-01-12T19:25:52.445Z,7.10
2019-01-12T19:28:24.840Z,7.10
2019-01-12T19:30:55.766Z,7.20
2019-01-12T19:33:26.795Z,7.20
2019-01-12T19:35:57.569Z,7.20
2019-01-12T19:38:28.346Z,7.20
2019-01-12T19:40:59.121Z,7.20
2019-01-12T19:43:30.147Z,7.20
2019-01-12T19:46:00.929Z,7.20
2019-01-12T19:48:31.742Z,7.20
2019-01-12T19:51:02.742Z,7.20
2019-01-12T19:53:33.544Z,7.30
2019-01-12T19:56:04.557Z,7.20
2019-01-12T19:58:35.354Z,7.20
2019-01-12T20:01:06.153Z,7.20
2019-01-12T20:03:36.954Z,7.30
2019-01-12T20:06:07.727Z,7.30
2019-01-12T20:08:38.771Z,7.30
2019-01-12T20:11:09.541Z,7.30
2019-01-12T20:13:40.333Z,7.30
2019-01-12T20:16:11.117Z,7.40
2019-01-12T20:18:41.939Z,7.40
2019-01-12T20:21:12.707Z,7.50
2019-01-12T20:23:43.497Z,7.50
2019-01-12T20:26:14.278Z,7.50
2019-01-12T20:28:45.317Z,7.50
2019-01-12T20:31:49.269Z,7.50
2019-01-12T20:34:23.146Z,7.50
2019-01-12T20:37:05.962Z,7.50
2019-01-12T20:40:03.684Z,7.40
2019-01-12T20:42:43.274Z,7.40
2019-01-12T20:45:33.595Z,7.40
2019-01-12T20:48:09.053Z,7.40
2019-01-12T20:50:55.173Z,7.50
2019-01-12T20:53:40.681Z,7.50
2019-01-12T20:56:23.539Z,7.50
2019-01-12T20:58:57.378Z,7.50
2019-01-12T21:01:50.651Z,7.50
2019-01-12T21:04:33.625Z,7.60
2019-01-12T21:07:24.070Z,7.50
2019-01-12T21:10:15.165Z,7.50
2019-01-12T21:13:11.293Z,7.50
2019-01-12T21:15:45.494Z,7.40
2019-01-12T21:18:16.255Z,7.40
2019-01-12T21:20:47.291Z,7.40
2019-01-12T21:23:18.305Z,7.40
2019-01-12T21:25:49.110Z,7.50
2019-01-12T21:28:19.885Z,7.50
2019-01-12T21:30:50.662Z,7.50
2019-01-12T21:33:21.524Z,7.40
2019-01-12T21:35:52.551Z,7.40
2019-01-12T21:38:23.313Z,7.40
2019-01-12T21:40:54.089Z,7.40
2019-01-12T21:43:24.858Z,7.40
2019-01-12T21:45:55.957Z,7.40
2019-01-12T21:48:26.709Z,7.40
2019-01-12T21:50:57.510Z,7.40
2019-01-12T21:53:28.286Z,7.30
2019-01-12T21:55:59.086Z,7.30
2019-01-12T21:58:31.797Z,7.30
2019-01-12T22:01:04.786Z,7.20
2019-01-12T22:03:39.854Z,7.20
2019-01-12T22:06:12.976Z,7.20
2019-01-12T22:08:45.481Z,7.20
2019-01-12T22:11:18.908Z,7.20
2019-01-12T22:13:57.990Z,7.20
2019-01-12T22:16:30.079Z,7.20
2019-01-12T22:19:05.211Z,7.20
2019-01-12T22:21:37.595Z,7.20
2019-01-12T22:24:11.468Z,7.20
2019-01-12T22:26:46.731Z,7.20
2019-01-12T22:29:22.595Z,7.20
2019-01-12T22:31:54.977Z,7.20
2019-01-12T22:34:27.210Z,7.20
2019-01-12T22:36:59.577Z,7.20
2019-01-12T22:39:33.773Z,7.20
2019-01-12T22:42:06.046Z,7.20
2019-01-12T22:44:38.197Z,7.20
2019-01-12T22:47:10.463Z,7.20
2019-01-12T22:49:42.598Z,7.20
2019-01-12T22:52:16.506Z,7.20
2019-01-12T22:54:48.725Z,7.20
2019-01-12T22:57:21.264Z,7.20
2019-01-12T22:59:56.931Z,7.20
2019-01-12T23:02:27.368Z,7.20
2019-01-12T23:04:59.449Z,7.20
2019-01-12T23:07:32.104Z,7.20
2019-01-12T23:10:05.593Z,7.30
2019-01-12T23:12:37.951Z,7.30
2019-01-12T23:15:09.983Z,7.30
2019-01-12T23:17:41.191Z,7.30
2019-01-12T23:20:12.038Z,7.30
2019-01-12T23:22:42.863Z,7.30
2019-01-12T23:25:13.744Z,7.30
2019-01-12T23:27:44.587Z,7.30
2019-01-12T23:30:17.001Z,7.30
2019-01-12T23:32:47.787Z,7.30
2019-01-12T23:35:18.834Z,7.30
2019-01-12T23:37:49.622Z,7.30
2019-01-12T23:40:20.425Z,7.30
2019-01-12T23:42:51.298Z,7.30
2019-01-12T23:45:22.106Z,7.30
2019-01-12T23:47:52.962Z,7.30
2019-01-12T23:50:23.803Z,7.30
2019-01-12T23:52:54.593Z,7.40
2019-01-12T23:55:25.410Z,7.40
2019-01-12T23:57:56.190Z,7.30
